createdAt,value
2024-03-03T00:01:49.846Z,5.60
2024-03-03T00:04:16.998Z,5.60
2024-03-03T00:06:44.173Z,5.70
2024-03-03T00:09:11.293Z,5.70
2024-03-03T00:11:38.378Z,5.70
2024-03-03T00:14:05.374Z,5.80
2024-03-03T00:16:32.904Z,5.90
2024-03-03T00:19:00.665Z,6.00
2024-03-03T00:21:28.492Z,6.00
2024-03-03T00:23:55.576Z,6.00
2024-03-03T00:26:22.589Z,6.00
2024-03-03T00:28:49.596Z,5.80
2024-03-03T00:31:17.727Z,5.70
2024-03-03T00:33:44.888Z,5.70
2024-03-03T00:36:12.282Z,5.50
2024-03-03T00:38:39.475Z,5.40
2024-03-03T00:41:06.896Z,5.30
2024-03-03T00:43:34.061Z,5.20
2024-03-03T00:46:01.331Z,5.20
2024-03-03T00:48:28.832Z,5.20
2024-03-03T00:50:56.036Z,5.40
2024-03-03T00:53:23.643Z,5.40
2024-03-03T00:55:52.553Z,5.40
2024-03-03T00:58:21.345Z,5.50
2024-03-03T01:00:48.541Z,5.50
2024-03-03T01:03:15.786Z,5.60
2024-03-03T01:05:42.845Z,5.60
2024-03-03T01:08:10.063Z,5.60
2024-03-03T01:10:37.232Z,5.60
2024-03-03T01:13:04.637Z,5.60
2024-03-03T01:15:31.783Z,5.60
2024-03-03T01:17:58.829Z,5.60
2024-03-03T01:20:25.832Z,5.70
2024-03-03T01:22:52.880Z,5.70
2024-03-03T01:25:20.012Z,5.70
2024-03-03T01:27:47.565Z,5.60
2024-03-03T01:30:14.682Z,5.60
2024-03-03T01:32:41.836Z,5.60
2024-03-03T01:35:09.341Z,5.60
2024-03-03T01:37:36.523Z,5.60
2024-03-03T01:40:05.762Z,5.50
2024-03-03T01:42:33.017Z,5.40
2024-03-03T01:45:00.032Z,5.50
2024-03-03T01:47:27.983Z,5.50
2024-03-03T01:49:57.274Z,5.60
2024-03-03T01:52:26.857Z,5.60
2024-03-03T01:54:54.245Z,5.70
2024-03-03T01:57:23.447Z,5.70
2024-03-03T01:59:52.282Z,5.80
2024-03-03T02:02:19.567Z,5.70
2024-03-03T02:04:47.449Z,5.70
2024-03-03T02:07:15.687Z,5.60
2024-03-03T02:09:45.874Z,5.50
2024-03-03T02:12:13.792Z,5.30
2024-03-03T02:14:41.040Z,5.10
2024-03-03T02:17:08.065Z,5.00
2024-03-03T02:19:35.871Z,4.90
2024-03-03T02:22:03.165Z,4.80
2024-03-03T02:24:30.272Z,4.90
2024-03-03T02:26:58.582Z,4.80
2024-03-03T02:29:27.319Z,4.80
2024-03-03T02:31:54.383Z,4.90
2024-03-03T02:34:22.971Z,4.90
2024-03-03T02:36:50.103Z,4.90
2024-03-03T02:39:17.293Z,4.80
2024-03-03T02:41:44.408Z,4.80
2024-03-03T02:44:11.500Z,4.80
2024-03-03T02:46:38.671Z,4.80
2024-03-03T02:49:05.801Z,4.80
2024-03-03T02:51:32.862Z,4.80
2024-03-03T02:54:00.052Z,4.80
2024-03-03T02:56:27.123Z,4.70
2024-03-03T02:58:54.294Z,4.60
2024-03-03T03:01:21.458Z,4.60
2024-03-03T03:03:49.127Z,4.50
2024-03-03T03:06:16.196Z,4.60
2024-03-03T03:08:43.275Z,4.60
2024-03-03T03:11:10.638Z,4.40
2024-03-03T03:13:41.175Z,4.40
2024-03-03T03:16:08.875Z,4.50
2024-03-03T03:18:36.233Z,4.70
2024-03-03T03:21:09.692Z,4.70
2024-03-03T03:23:36.869Z,4.70
2024-03-03T03:26:04.462Z,4.70
2024-03-03T03:28:31.692Z,4.60
2024-03-03T03:30:58.911Z,4.60
2024-03-03T03:33:26.605Z,4.60
2024-03-03T03:35:53.743Z,4.60
2024-03-03T03:38:20.959Z,4.60
2024-03-03T03:40:48.123Z,4.70
2024-03-03T03:43:15.460Z,4.80
2024-03-03T03:45:42.803Z,4.90
2024-03-03T03:48:10.016Z,4.80
2024-03-03T03:50:37.493Z,4.90
2024-03-03T03:53:05.293Z,4.90
2024-03-03T03:55:32.337Z,4.80
2024-03-03T03:57:59.507Z,4.80
2024-03-03T04:00:26.691Z,4.70
2024-03-03T04:02:53.972Z,4.70
2024-03-03T04:05:21.179Z,4.60
2024-03-03T04:07:48.231Z,4.60
2024-03-03T04:10:20.129Z,4.60
2024-03-03T04:12:47.486Z,4.50
2024-03-03T04:15:16.043Z,4.50
2024-03-03T04:17:43.664Z,4.40
2024-03-03T04:20:11.664Z,4.40
2024-03-03T04:22:38.730Z,4.40
2024-03-03T04:25:06.553Z,4.30
2024-03-03T04:27:33.722Z,4.30
2024-03-03T04:30:00.771Z,4.30
2024-03-03T04:32:27.992Z,4.30
2024-03-03T04:34:55.174Z,4.30
2024-03-03T04:37:22.400Z,4.30
2024-03-03T04:39:49.940Z,4.30
2024-03-03T04:42:17.101Z,4.30
2024-03-03T04:44:44.424Z,4.30
2024-03-03T04:47:11.953Z,4.30
2024-03-03T04:49:42.640Z,4.30
2024-03-03T04:52:10.041Z,4.30
2024-03-03T04:54:38.170Z,4.30
2024-03-03T04:57:05.583Z,4.20
2024-03-03T04:59:32.948Z,4.20
2024-03-03T05:02:00.175Z,4.20
2024-03-03T05:04:28.696Z,4.30
2024-03-03T05:06:56.184Z,4.20
2024-03-03T05:09:23.331Z,4.20
2024-03-03T05:11:50.661Z,4.20
2024-03-03T05:14:17.904Z,4.20
2024-03-03T05:16:45.009Z,4.30
2024-03-03T05:19:12.297Z,4.20
2024-03-03T05:21:40.324Z,4.20
2024-03-03T05:24:07.644Z,4.20
2024-03-03T05:26:34.743Z,4.20
2024-03-03T05:29:03.858Z,4.20
2024-03-03T05:31:41.175Z,4.20
2024-03-03T05:34:16.668Z,4.10
2024-03-03T05:36:44.644Z,4.00
2024-03-03T05:39:12.172Z,4.10
2024-03-03T05:41:42.650Z,4.10
2024-03-03T05:44:10.180Z,4.20
2024-03-03T05:46:40.672Z,4.20
2024-03-03T05:49:07.860Z,4.20
2024-03-03T05:51:34.940Z,4.20
2024-03-03T05:54:02.966Z,4.30
2024-03-03T05:56:30.150Z,4.20
2024-03-03T05:58:57.284Z,4.40
2024-03-03T06:01:24.487Z,4.50
2024-03-03T06:03:51.859Z,4.40
2024-03-03T06:06:19.070Z,4.40
2024-03-03T06:08:46.779Z,4.50
2024-03-03T06:11:17.472Z,4.50
2024-03-03T06:13:44.843Z,4.50
2024-03-03T06:16:12.165Z,4.50
2024-03-03T06:18:39.393Z,4.50
2024-03-03T06:21:08.293Z,4.50
2024-03-03T06:23:37.335Z,4.60
2024-03-03T06:26:04.572Z,4.70
2024-03-03T06:28:31.667Z,4.60
2024-03-03T06:30:58.816Z,4.60
2024-03-03T06:33:27.393Z,4.50
2024-03-03T06:35:54.472Z,4.50
2024-03-03T06:38:21.555Z,4.60
2024-03-03T06:40:50.289Z,4.60
2024-03-03T06:43:17.591Z,4.60
2024-03-03T06:45:44.816Z,4.70
2024-03-03T06:48:12.068Z,4.80
2024-03-03T06:50:39.569Z,4.90
2024-03-03T06:53:06.754Z,4.90
2024-03-03T06:55:34.229Z,5.10
2024-03-03T06:58:01.491Z,5.20
2024-03-03T07:00:28.749Z,5.20
2024-03-03T07:03:10.838Z,5.20
2024-03-03T07:05:38.196Z,5.20
2024-03-03T07:08:05.739Z,5.40
2024-03-03T07:10:33.236Z,5.10
2024-03-03T07:13:00.295Z,5.20
2024-03-03T07:15:27.378Z,5.10
2024-03-03T07:17:54.450Z,5.20
2024-03-03T07:20:21.772Z,5.30
2024-03-03T07:22:48.870Z,5.60
2024-03-03T07:25:16.046Z,5.60
2024-03-03T07:27:43.130Z,5.70
2024-03-03T07:30:11.121Z,5.70
2024-03-03T07:32:41.371Z,5.80
2024-03-03T07:35:09.662Z,6.00
2024-03-03T07:37:38.848Z,6.10
2024-03-03T07:40:07.540Z,6.10
2024-03-03T07:42:34.650Z,6.30
2024-03-03T07:45:01.805Z,6.60
2024-03-03T07:47:29.144Z,6.70
2024-03-03T07:49:56.415Z,6.80
2024-03-03T07:52:23.543Z,6.70
2024-03-03T07:54:50.979Z,6.70
2024-03-03T07:57:18.176Z,7.00
2024-03-03T07:59:45.534Z,7.00
2024-03-03T08:02:12.871Z,6.90
2024-03-03T08:04:40.149Z,7.00
2024-03-03T08:07:07.279Z,7.00
2024-03-03T08:09:34.483Z,7.10
2024-03-03T08:12:01.690Z,7.20
2024-03-03T08:14:29.092Z,7.20
2024-03-03T08:16:56.203Z,7.30
2024-03-03T08:19:23.379Z,7.30
2024-03-03T08:21:50.486Z,7.30
2024-03-03T08:24:17.949Z,7.10
2024-03-03T08:26:51.323Z,7.10
2024-03-03T08:29:18.668Z,7.20
2024-03-03T08:31:46.534Z,7.20
2024-03-03T08:34:13.893Z,7.40
2024-03-03T08:36:42.317Z,7.60
2024-03-03T08:39:11.913Z,7.70
2024-03-03T08:41:43.186Z,8.00
2024-03-03T08:44:11.279Z,8.00
2024-03-03T08:46:38.268Z,8.10
2024-03-03T08:49:06.062Z,8.20
2024-03-03T08:51:38.592Z,8.30
2024-03-03T08:54:06.280Z,8.50
2024-03-03T08:56:33.729Z,8.70
2024-03-03T08:59:00.844Z,8.80
2024-03-03T09:01:27.998Z,9.00
2024-03-03T09:03:55.166Z,9.30
2024-03-03T09:06:22.481Z,9.50
2024-03-03T09:08:49.534Z,9.60
2024-03-03T09:11:16.927Z,9.70
2024-03-03T09:13:43.966Z,9.90
2024-03-03T09:16:12.811Z,10.00
2024-03-03T09:18:40.141Z,10.10
2024-03-03T09:21:08.495Z,10.30
2024-03-03T09:23:36.275Z,10.40
2024-03-03T09:26:04.480Z,10.50
2024-03-03T09:28:31.634Z,10.80
2024-03-03T09:30:58.822Z,11.00
2024-03-03T09:33:25.977Z,11.10
2024-03-03T09:35:53.796Z,11.50
2024-03-03T09:38:20.826Z,11.80
2024-03-03T09:40:48.042Z,12.00
2024-03-03T09:43:17.956Z,12.30
2024-03-03T09:45:48.462Z,12.40
2024-03-03T09:48:15.743Z,12.60
2024-03-03T09:50:44.062Z,12.80
2024-03-03T09:53:11.157Z,13.10
2024-03-03T09:55:39.237Z,13.30
2024-03-03T09:58:09.833Z,13.50
2024-03-03T10:00:37.030Z,13.40
2024-03-03T10:03:04.740Z,13.60
2024-03-03T10:05:33.417Z,13.60
2024-03-03T10:08:04.821Z,13.60
2024-03-03T10:10:36.829Z,13.80
2024-03-03T10:13:08.178Z,14.10
2024-03-03T10:15:36.936Z,14.10
2024-03-03T10:18:04.454Z,14.10
2024-03-03T10:20:33.588Z,14.00
2024-03-03T10:23:00.937Z,14.00
2024-03-03T10:25:28.171Z,14.00
2024-03-03T10:28:14.506Z,13.90
2024-03-03T10:30:41.823Z,14.30
2024-03-03T10:33:09.783Z,14.60
2024-03-03T10:35:37.440Z,14.70
2024-03-03T10:38:05.203Z,14.60
2024-03-03T10:40:35.268Z,14.70
2024-03-03T10:43:02.552Z,14.70
2024-03-03T10:45:30.296Z,14.40
2024-03-03T10:47:58.627Z,14.30
2024-03-03T10:50:25.971Z,14.20
2024-03-03T10:52:54.219Z,14.10
2024-03-03T10:55:21.354Z,14.30
2024-03-03T10:57:49.993Z,14.20
2024-03-03T11:00:26.249Z,14.20
2024-03-03T11:02:55.445Z,14.00
2024-03-03T11:05:23.702Z,13.80
2024-03-03T11:07:51.905Z,13.80
2024-03-03T11:10:19.323Z,13.60
2024-03-03T11:12:51.402Z,13.70
2024-03-03T11:15:22.953Z,13.80
2024-03-03T11:17:59.443Z,13.70
2024-03-03T11:20:40.452Z,13.60
2024-03-03T11:23:10.669Z,13.70
2024-03-03T11:26:01.086Z,14.00
2024-03-03T11:28:30.052Z,14.20
2024-03-03T11:30:57.751Z,14.30
2024-03-03T11:33:26.311Z,14.40
2024-03-03T11:35:54.121Z,14.60
2024-03-03T11:38:22.514Z,14.50
2024-03-03T11:40:50.028Z,14.50
2024-03-03T11:43:17.302Z,14.40
2024-03-03T11:45:49.832Z,14.60
2024-03-03T11:48:17.322Z,14.90
2024-03-03T11:50:44.723Z,15.00
2024-03-03T11:53:12.009Z,15.00
2024-03-03T11:55:40.007Z,15.20
2024-03-03T11:58:08.972Z,15.20
2024-03-03T12:00:36.402Z,15.50
2024-03-03T12:03:03.884Z,15.60
2024-03-03T12:05:31.167Z,15.40
2024-03-03T12:07:58.676Z,14.90
2024-03-03T12:10:31.982Z,14.70
2024-03-03T12:13:02.283Z,14.50
2024-03-03T12:15:30.838Z,14.40
2024-03-03T12:18:00.898Z,14.30
2024-03-03T12:20:29.443Z,14.30
2024-03-03T12:22:57.406Z,14.50
2024-03-03T12:25:26.207Z,14.60
2024-03-03T12:28:00.979Z,14.70
2024-03-03T12:30:35.311Z,14.90
2024-03-03T12:33:05.874Z,15.00
2024-03-03T12:35:33.872Z,15.00
2024-03-03T12:38:01.568Z,15.10
2024-03-03T12:40:29.316Z,14.90
2024-03-03T12:42:56.640Z,14.60
2024-03-03T12:45:23.837Z,14.30
2024-03-03T12:47:51.246Z,14.40
2024-03-03T12:50:20.330Z,14.70
2024-03-03T12:52:48.763Z,15.00
2024-03-03T12:55:17.263Z,15.00
2024-03-03T12:57:45.700Z,15.10
2024-03-03T13:00:16.960Z,15.00
2024-03-03T13:02:44.891Z,15.10
2024-03-03T13:05:16.980Z,15.10
2024-03-03T13:07:51.810Z,15.00
2024-03-03T13:10:23.913Z,15.20
2024-03-03T13:12:52.032Z,15.20
2024-03-03T13:15:20.642Z,15.00
2024-03-03T13:18:07.050Z,14.50
2024-03-03T13:20:35.114Z,14.20
2024-03-03T13:23:17.242Z,14.00
2024-03-03T13:25:45.042Z,13.90
2024-03-03T13:28:14.882Z,13.80
2024-03-03T13:30:59.636Z,13.60
2024-03-03T13:33:33.593Z,13.50
2024-03-03T13:36:02.565Z,13.50
2024-03-03T13:38:29.801Z,13.50
2024-03-03T13:40:57.085Z,13.40
2024-03-03T13:43:25.311Z,13.50
2024-03-03T13:45:52.762Z,13.80
2024-03-03T13:48:20.046Z,14.10
2024-03-03T13:50:47.599Z,14.40
2024-03-03T13:53:18.476Z,14.50
2024-03-03T13:55:49.381Z,14.60
2024-03-03T13:58:16.942Z,14.70
2024-03-03T14:00:44.484Z,14.70
2024-03-03T14:03:12.044Z,14.60
2024-03-03T14:05:39.066Z,14.50
2024-03-03T14:08:06.686Z,14.30
2024-03-03T14:10:34.317Z,14.20
2024-03-03T14:13:05.783Z,14.10
2024-03-03T14:15:34.043Z,14.00
2024-03-03T14:18:01.665Z,14.10
2024-03-03T14:20:29.677Z,14.20
2024-03-03T14:22:57.198Z,14.10
2024-03-03T14:25:26.327Z,14.00
2024-03-03T14:28:04.278Z,13.80
2024-03-03T14:30:37.010Z,13.60
2024-03-03T14:33:06.210Z,13.40
2024-03-03T14:35:33.778Z,13.20
2024-03-03T14:38:01.327Z,13.10
2024-03-03T14:40:28.607Z,13.00
2024-03-03T14:42:56.528Z,12.90
2024-03-03T14:45:25.128Z,12.80
2024-03-03T14:47:52.429Z,12.80
2024-03-03T14:50:21.060Z,12.70
2024-03-03T14:52:48.311Z,12.70
2024-03-03T14:55:17.465Z,12.80
2024-03-03T14:57:44.951Z,12.80
2024-03-03T15:00:13.829Z,12.80
2024-03-03T15:02:41.521Z,12.80
2024-03-03T15:05:09.004Z,12.70
2024-03-03T15:07:36.739Z,12.70
2024-03-03T15:10:07.804Z,12.60
2024-03-03T15:12:35.511Z,12.60
2024-03-03T15:15:04.032Z,12.50
2024-03-03T15:17:31.542Z,12.40
2024-03-03T15:19:58.890Z,12.40
2024-03-03T15:22:26.575Z,12.30
2024-03-03T15:24:53.986Z,12.30
2024-03-03T15:27:21.820Z,12.20
2024-03-03T15:29:49.214Z,12.10
2024-03-03T15:32:16.322Z,12.10
2024-03-03T15:34:43.691Z,12.10
2024-03-03T15:37:11.348Z,12.00
2024-03-03T15:39:40.016Z,12.00
2024-03-03T15:42:07.488Z,12.00
2024-03-03T15:44:35.290Z,11.90
2024-03-03T15:47:03.336Z,11.90
2024-03-03T15:49:30.592Z,11.80
2024-03-03T15:51:57.911Z,11.80
2024-03-03T15:54:25.016Z,11.70
2024-03-03T15:56:52.181Z,11.70
2024-03-03T15:59:19.298Z,11.60
2024-03-03T16:01:46.420Z,11.60
2024-03-03T16:04:13.615Z,11.60
2024-03-03T16:06:40.777Z,11.60
2024-03-03T16:09:08.056Z,11.50
2024-03-03T16:11:35.662Z,11.50
2024-03-03T16:14:03.608Z,11.50
2024-03-03T16:16:31.199Z,11.50
2024-03-03T16:18:58.569Z,11.50
2024-03-03T16:21:28.321Z,11.40
2024-03-03T16:23:58.218Z,11.30
2024-03-03T16:26:25.910Z,11.20
2024-03-03T16:28:53.169Z,11.20
2024-03-03T16:31:20.690Z,11.00
2024-03-03T16:33:48.200Z,10.90
2024-03-03T16:36:19.050Z,10.70
2024-03-03T16:38:48.365Z,10.60
2024-03-03T16:41:16.871Z,10.50
2024-03-03T16:43:43.936Z,10.40
2024-03-03T16:46:11.256Z,10.30
2024-03-03T16:48:38.624Z,10.30
2024-03-03T16:51:07.174Z,10.10
2024-03-03T16:53:34.434Z,9.90
2024-03-03T16:56:02.351Z,9.80
2024-03-03T16:58:29.899Z,9.60
2024-03-03T17:00:57.299Z,9.50
2024-03-03T17:03:25.108Z,9.50
2024-03-03T17:05:52.301Z,9.50
2024-03-03T17:08:19.313Z,9.40
2024-03-03T17:10:46.550Z,9.10
2024-03-03T17:13:13.709Z,9.00
2024-03-03T17:15:40.806Z,9.10
2024-03-03T17:18:08.622Z,9.10
2024-03-03T17:20:35.856Z,9.10
2024-03-03T17:23:03.238Z,9.20
2024-03-03T17:25:32.746Z,9.20
2024-03-03T17:28:00.601Z,9.00
2024-03-03T17:30:27.747Z,8.80
2024-03-03T17:32:55.147Z,8.60
2024-03-03T17:35:23.241Z,8.40
2024-03-03T17:37:50.730Z,8.50
2024-03-03T17:40:17.930Z,8.50
2024-03-03T17:42:45.040Z,8.30
2024-03-03T17:45:13.962Z,8.10
2024-03-03T17:47:41.229Z,7.90
2024-03-03T17:50:09.704Z,7.70
2024-03-03T17:52:36.841Z,7.80
2024-03-03T17:55:05.160Z,7.80
2024-03-03T17:57:33.661Z,7.60
2024-03-03T18:00:02.510Z,7.40
2024-03-03T18:02:29.574Z,7.50
2024-03-03T18:04:56.685Z,7.50
2024-03-03T18:07:26.711Z,7.60
2024-03-03T18:09:53.737Z,7.30
2024-03-03T18:12:21.927Z,7.20
2024-03-03T18:14:50.805Z,7.30
2024-03-03T18:17:17.828Z,7.30
2024-03-03T18:19:44.972Z,7.10
2024-03-03T18:22:12.293Z,6.80
2024-03-03T18:24:39.322Z,6.70
2024-03-03T18:27:06.522Z,6.60
2024-03-03T18:29:33.551Z,6.50
2024-03-03T18:32:02.304Z,6.50
2024-03-03T18:34:30.743Z,6.70
2024-03-03T18:36:58.156Z,6.90
2024-03-03T18:39:25.429Z,7.00
2024-03-03T18:41:53.142Z,7.00
2024-03-03T18:44:20.433Z,6.80
2024-03-03T18:46:47.578Z,6.70
2024-03-03T18:49:15.242Z,6.70
2024-03-03T18:51:46.374Z,6.50
2024-03-03T18:54:13.601Z,6.40
2024-03-03T18:56:40.724Z,6.30
2024-03-03T18:59:07.895Z,6.20
2024-03-03T19:01:35.016Z,6.20
2024-03-03T19:04:02.278Z,6.10
2024-03-03T19:06:30.400Z,6.00
2024-03-03T19:08:57.468Z,6.00
2024-03-03T19:11:24.634Z,6.10
2024-03-03T19:13:51.837Z,6.20
2024-03-03T19:16:19.122Z,6.20
2024-03-03T19:18:46.961Z,6.20
2024-03-03T19:21:15.977Z,6.20
2024-03-03T19:23:43.073Z,6.00
2024-03-03T19:26:10.630Z,5.90
2024-03-03T19:28:38.693Z,5.90
2024-03-03T19:31:06.156Z,5.60
2024-03-03T19:33:33.525Z,5.40
2024-03-03T19:36:01.881Z,5.20
2024-03-03T19:38:30.087Z,5.20
2024-03-03T19:40:58.018Z,5.10
2024-03-03T19:43:25.608Z,5.20
2024-03-03T19:45:52.849Z,5.40
2024-03-03T19:48:20.030Z,5.40
2024-03-03T19:50:47.446Z,5.40
2024-03-03T19:53:14.504Z,5.40
2024-03-03T19:55:43.052Z,5.40
2024-03-03T19:58:10.303Z,5.40
2024-03-03T20:00:38.277Z,5.40
2024-03-03T20:03:09.393Z,5.60
2024-03-03T20:05:36.500Z,5.70
2024-03-03T20:08:06.303Z,5.80
2024-03-03T20:10:33.882Z,5.70
2024-03-03T20:13:05.141Z,5.70
2024-03-03T20:15:32.621Z,5.80
2024-03-03T20:17:59.795Z,5.90
2024-03-03T20:20:27.089Z,5.80
2024-03-03T20:22:54.341Z,5.90
2024-03-03T20:25:21.620Z,5.90
2024-03-03T20:27:48.650Z,5.80
2024-03-03T20:30:16.007Z,5.50
2024-03-03T20:32:43.104Z,5.50
2024-03-03T20:35:11.043Z,5.50
2024-03-03T20:37:39.280Z,5.50
2024-03-03T20:40:13.221Z,5.40
2024-03-03T20:42:42.021Z,5.40
2024-03-03T20:45:13.066Z,5.40
2024-03-03T20:47:42.131Z,5.40
2024-03-03T20:50:10.796Z,5.30
2024-03-03T20:52:39.464Z,5.20
2024-03-03T20:55:10.164Z,5.20
2024-03-03T20:57:40.968Z,5.00
2024-03-03T21:00:08.855Z,4.80
2024-03-03T21:02:39.707Z,4.70
2024-03-03T21:05:07.490Z,4.60
2024-03-03T21:07:35.036Z,4.60
2024-03-03T21:10:02.711Z,4.70
2024-03-03T21:12:30.096Z,4.60
2024-03-03T21:14:57.265Z,4.70
2024-03-03T21:17:24.409Z,4.90
2024-03-03T21:19:51.537Z,4.90
2024-03-03T21:22:19.016Z,4.90
2024-03-03T21:24:46.360Z,4.70
2024-03-03T21:27:14.148Z,4.60
2024-03-03T21:29:41.407Z,4.60
2024-03-03T21:32:09.039Z,4.60
2024-03-03T21:34:36.235Z,4.70
2024-03-03T21:37:03.549Z,4.70
2024-03-03T21:39:32.675Z,4.60
2024-03-03T21:42:00.127Z,4.60
2024-03-03T21:44:27.309Z,4.70
2024-03-03T21:46:54.749Z,4.80
2024-03-03T21:49:22.061Z,4.80
2024-03-03T21:51:49.110Z,4.80
2024-03-03T21:54:16.422Z,4.80
2024-03-03T21:56:43.544Z,4.70
2024-03-03T21:59:10.718Z,4.50
2024-03-03T22:01:42.476Z,4.50
2024-03-03T22:04:15.545Z,4.50
2024-03-03T22:06:43.015Z,4.50
2024-03-03T22:09:10.870Z,4.30
2024-03-03T22:11:46.202Z,4.20
2024-03-03T22:14:13.346Z,4.10
2024-03-03T22:16:40.735Z,4.10
2024-03-03T22:19:07.835Z,3.90
2024-03-03T22:21:35.084Z,3.90
2024-03-03T22:24:03.838Z,3.90
2024-03-03T22:26:31.139Z,4.10
2024-03-03T22:28:58.378Z,4.20
2024-03-03T22:31:25.511Z,4.20
2024-03-03T22:33:52.608Z,4.30
2024-03-03T22:36:19.677Z,4.50
2024-03-03T22:38:46.774Z,4.50
2024-03-03T22:41:14.203Z,4.50
2024-03-03T22:43:41.404Z,4.40
2024-03-03T22:46:08.864Z,4.50
2024-03-03T22:48:36.840Z,4.50
2024-03-03T22:51:07.766Z,4.50
2024-03-03T22:53:34.924Z,4.40
2024-03-03T22:56:02.053Z,4.20
2024-03-03T22:58:29.299Z,4.10
2024-03-03T23:00:56.694Z,4.00
2024-03-03T23:03:23.822Z,3.70
2024-03-03T23:05:51.022Z,3.50
2024-03-03T23:08:18.985Z,3.50
2024-03-03T23:10:46.288Z,3.60
2024-03-03T23:13:14.260Z,3.60
2024-03-03T23:15:41.511Z,3.70
2024-03-03T23:18:08.632Z,3.70
2024-03-03T23:20:35.775Z,3.70
2024-03-03T23:23:03.252Z,3.70
2024-03-03T23:25:30.431Z,3.70
2024-03-03T23:27:57.646Z,3.50
2024-03-03T23:30:24.698Z,3.40
2024-03-03T23:32:51.847Z,3.40
2024-03-03T23:35:19.005Z,3.30
2024-03-03T23:37:46.118Z,3.30
2024-03-03T23:40:14.342Z,3.40
2024-03-03T23:42:41.898Z,3.40
2024-03-03T23:45:09.429Z,3.40
2024-03-03T23:47:36.480Z,3.40
2024-03-03T23:50:03.798Z,3.60
2024-03-03T23:52:31.031Z,3.40
2024-03-03T23:54:58.275Z,3.20
2024-03-03T23:57:25.437Z,3.20
2024-03-03T23:59:52.526Z,3.20
